sensor_id;sensor_type;location;lat;lon;timestamp;P1;durP1;ratioP1;P2;durP2;ratioP2
23206;SDS011;11773;52.570;13.052;2022-12-11T00:00:10;2.53;;;2.20;;
23206;SDS011;11773;52.570;13.052;2022-12-11T00:02:41;2.10;;;1.73;;
23206;SDS011;11773;52.570;13.052;2022-12-11T00:05:11;2.47;;;2.10;;
23206;SDS011;11773;52.570;13.052;2022-12-11T00:07:40;3.00;;;2.30;;
23206;SDS011;11773;52.570;13.052;2022-12-11T00:10:10;2.17;;;1.90;;
23206;SDS011;11773;52.570;13.052;2022-12-11T00:12:39;3.30;;;2.80;;
23206;SDS011;11773;52.570;13.052;2022-12-11T00:15:09;3.40;;;2.50;;
23206;SDS011;11773;52.570;13.052;2022-12-11T00:17:39;2.80;;;2.23;;
23206;SDS011;11773;52.570;13.052;2022-12-11T00:20:08;2.10;;;1.90;;
23206;SDS011;11773;52.570;13.052;2022-12-11T00:22:38;2.73;;;2.30;;
23206;SDS011;11773;52.570;13.052;2022-12-11T00:25:08;3.07;;;2.53;;
23206;SDS011;11773;52.570;13.052;2022-12-11T00:27:38;2.93;;;2.47;;
23206;SDS011;11773;52.570;13.052;2022-12-11T00:30:07;2.97;;;2.50;;
23206;SDS011;11773;52.570;13.052;2022-12-11T00:32:37;3.30;;;2.90;;
23206;SDS011;11773;52.570;13.052;2022-12-11T00:35:07;3.03;;;2.73;;
23206;SDS011;11773;52.570;13.052;2022-12-11T00:37:37;3.10;;;2.80;;
23206;SDS011;11773;52.570;13.052;2022-12-11T00:40:07;3.73;;;2.40;;
23206;SDS011;11773;52.570;13.052;2022-12-11T00:42:37;2.57;;;2.30;;
23206;SDS011;11773;52.570;13.052;2022-12-11T00:45:07;2.33;;;2.13;;
23206;SDS011;11773;52.570;13.052;2022-12-11T00:47:37;2.87;;;2.33;;
23206;SDS011;11773;52.570;13.052;2022-12-11T00:50:07;3.10;;;2.40;;
23206;SDS011;11773;52.570;13.052;2022-12-11T00:52:38;2.73;;;2.23;;
23206;SDS011;11773;52.570;13.052;2022-12-11T00:55:07;2.27;;;2.07;;
23206;SDS011;11773;52.570;13.052;2022-12-11T00:57:37;2.77;;;2.20;;
23206;SDS011;11773;52.570;13.052;2022-12-11T01:00:07;2.93;;;2.20;;
23206;SDS011;11773;52.570;13.052;2022-12-11T01:02:38;2.63;;;2.17;;
23206;SDS011;11773;52.570;13.052;2022-12-11T01:05:09;2.93;;;2.27;;
23206;SDS011;11773;52.570;13.052;2022-12-11T01:07:39;2.80;;;2.30;;
23206;SDS011;11773;52.570;13.052;2022-12-11T01:10:09;2.53;;;1.90;;
23206;SDS011;11773;52.570;13.052;2022-12-11T01:12:53;2.83;;;2.10;;
23206;SDS011;11773;52.570;13.052;2022-12-11T01:15:30;2.90;;;2.27;;
23206;SDS011;11773;52.570;13.052;2022-12-11T01:18:05;2.10;;;1.90;;
23206;SDS011;11773;52.570;13.052;2022-12-11T01:20:36;2.17;;;1.73;;
23206;SDS011;11773;52.570;13.052;2022-12-11T01:23:09;2.37;;;1.80;;
23206;SDS011;11773;52.570;13.052;2022-12-11T01:25:40;2.47;;;2.00;;
23206;SDS011;11773;52.570;13.052;2022-12-11T01:28:10;2.20;;;2.00;;
23206;SDS011;11773;52.570;13.052;2022-12-11T01:30:40;3.03;;;2.10;;
23206;SDS011;11773;52.570;13.052;2022-12-11T01:33:10;2.50;;;2.27;;
23206;SDS011;11773;52.570;13.052;2022-12-11T01:35:40;1.87;;;1.63;;
23206;SDS011;11773;52.570;13.052;2022-12-11T01:38:09;3.07;;;2.63;;
23206;SDS011;11773;52.570;13.052;2022-12-11T01:40:44;2.83;;;2.40;;
23206;SDS011;11773;52.570;13.052;2022-12-11T01:43:18;2.40;;;2.00;;
23206;SDS011;11773;52.570;13.052;2022-12-11T01:45:47;2.03;;;1.83;;
23206;SDS011;11773;52.570;13.052;2022-12-11T01:48:26;2.07;;;1.87;;
23206;SDS011;11773;52.570;13.052;2022-12-11T01:50:55;2.13;;;1.93;;
23206;SDS011;11773;52.570;13.052;2022-12-11T01:53:32;2.20;;;2.00;;
23206;SDS011;11773;52.570;13.052;2022-12-11T01:56:05;2.47;;;2.23;;
23206;SDS011;11773;52.570;13.052;2022-12-11T01:58:41;3.67;;;2.27;;
23206;SDS011;11773;52.570;13.052;2022-12-11T02:01:21;1.83;;;1.70;;
23206;SDS011;11773;52.570;13.052;2022-12-11T02:03:53;2.10;;;1.90;;
23206;SDS011;11773;52.570;13.052;2022-12-11T02:06:35;2.77;;;2.33;;
23206;SDS011;11773;52.570;13.052;2022-12-11T02:09:15;1.80;;;1.70;;
23206;SDS011;11773;52.570;13.052;2022-12-11T02:14:43;2.10;;;1.80;;
23206;SDS011;11773;52.570;13.052;2022-12-11T02:17:53;2.60;;;2.10;;
23206;SDS011;11773;52.570;13.052;2022-12-11T02:20:30;2.83;;;2.23;;
23206;SDS011;11773;52.570;13.052;2022-12-11T02:23:13;3.03;;;2.40;;
23206;SDS011;11773;52.570;13.052;2022-12-11T02:25:55;2.67;;;2.03;;
23206;SDS011;11773;52.570;13.052;2022-12-11T02:28:54;2.07;;;1.50;;
23206;SDS011;11773;52.570;13.052;2022-12-11T02:31:34;2.63;;;1.93;;
23206;SDS011;11773;52.570;13.052;2022-12-11T02:34:11;2.17;;;1.87;;
23206;SDS011;11773;52.570;13.052;2022-12-11T02:36:55;1.90;;;1.70;;
23206;SDS011;11773;52.570;13.052;2022-12-11T02:39:27;2.47;;;2.10;;
23206;SDS011;11773;52.570;13.052;2022-12-11T02:42:01;2.30;;;2.03;;
23206;SDS011;11773;52.570;13.052;2022-12-11T02:44:33;2.77;;;2.30;;
23206;SDS011;11773;52.570;13.052;2022-12-11T02:47:03;2.10;;;1.70;;
23206;SDS011;11773;52.570;13.052;2022-12-11T02:49:38;2.17;;;1.70;;
23206;SDS011;11773;52.570;13.052;2022-12-11T02:52:11;2.30;;;2.03;;
23206;SDS011;11773;52.570;13.052;2022-12-11T02:54:45;2.53;;;2.10;;
23206;SDS011;11773;52.570;13.052;2022-12-11T02:57:23;2.10;;;1.90;;
23206;SDS011;11773;52.570;13.052;2022-12-11T02:59:57;2.17;;;1.97;;
23206;SDS011;11773;52.570;13.052;2022-12-11T03:02:27;1.70;;;1.60;;
23206;SDS011;11773;52.570;13.052;2022-12-11T03:04:57;4.10;;;3.30;;
23206;SDS011;11773;52.570;13.052;2022-12-11T03:07:28;2.30;;;2.00;;
23206;SDS011;11773;52.570;13.052;2022-12-11T03:10:02;2.90;;;2.30;;
23206;SDS011;11773;52.570;13.052;2022-12-11T03:12:35;4.43;;;3.87;;
23206;SDS011;11773;52.570;13.052;2022-12-11T03:15:10;4.70;;;3.70;;
23206;SDS011;11773;52.570;13.052;2022-12-11T03:20:35;3.37;;;3.00;;
23206;SDS011;11773;52.570;13.052;2022-12-11T03:23:21;3.33;;;3.03;;
23206;SDS011;11773;52.570;13.052;2022-12-11T03:26:03;2.33;;;2.10;;
23206;SDS011;11773;52.570;13.052;2022-12-11T03:28:40;2.73;;;2.30;;
23206;SDS011;11773;52.570;13.052;2022-12-11T03:31:18;2.40;;;2.20;;
23206;SDS011;11773;52.570;13.052;2022-12-11T03:33:56;2.83;;;2.53;;
23206;SDS011;11773;52.570;13.052;2022-12-11T03:36:30;3.00;;;2.70;;
23206;SDS011;11773;52.570;13.052;2022-12-11T03:39:08;2.70;;;2.40;;
23206;SDS011;11773;52.570;13.052;2022-12-11T03:41:52;2.23;;;2.03;;
23206;SDS011;11773;52.570;13.052;2022-12-11T03:44:24;2.20;;;1.87;;
23206;SDS011;11773;52.570;13.052;2022-12-11T03:46:58;2.33;;;2.07;;
23206;SDS011;11773;52.570;13.052;2022-12-11T03:49:38;2.37;;;2.10;;
23206;SDS011;11773;52.570;13.052;2022-12-11T03:52:05;1.90;;;1.70;;
23206;SDS011;11773;52.570;13.052;2022-12-11T03:54:39;2.20;;;2.00;;
23206;SDS011;11773;52.570;13.052;2022-12-11T03:57:12;2.30;;;1.90;;
23206;SDS011;11773;52.570;13.052;2022-12-11T03:59:47;2.13;;;1.73;;
23206;SDS011;11773;52.570;13.052;2022-12-11T04:02:17;1.77;;;1.63;;
23206;SDS011;11773;52.570;13.052;2022-12-11T04:04:46;1.77;;;1.60;;
23206;SDS011;11773;52.570;13.052;2022-12-11T04:07:16;2.33;;;2.13;;
23206;SDS011;11773;52.570;13.052;2022-12-11T04:09:45;2.27;;;1.90;;
23206;SDS011;11773;52.570;13.052;2022-12-11T04:12:15;2.00;;;1.80;;
23206;SDS011;11773;52.570;13.052;2022-12-11T04:14:44;2.00;;;1.80;;
23206;SDS011;11773;52.570;13.052;2022-12-11T04:17:33;2.50;;;2.17;;
23206;SDS011;11773;52.570;13.052;2022-12-11T04:20:21;2.67;;;2.17;;
23206;SDS011;11773;52.570;13.052;2022-12-11T04:23:10;2.20;;;1.93;;
23206;SDS011;11773;52.570;13.052;2022-12-11T04:26:07;2.60;;;2.20;;
23206;SDS011;11773;52.570;13.052;2022-12-11T04:28:43;2.20;;;1.93;;
23206;SDS011;11773;52.570;13.052;2022-12-11T04:31:19;1.83;;;1.70;;
23206;SDS011;11773;52.570;13.052;2022-12-11T04:33:50;1.80;;;1.60;;
23206;SDS011;11773;52.570;13.052;2022-12-11T04:36:20;2.17;;;1.97;;
23206;SDS011;11773;52.570;13.052;2022-12-11T04:38:49;1.90;;;1.57;;
23206;SDS011;11773;52.570;13.052;2022-12-11T04:41:19;2.10;;;1.90;;
23206;SDS011;11773;52.570;13.052;2022-12-11T04:43:48;1.90;;;1.40;;
23206;SDS011;11773;52.570;13.052;2022-12-11T04:46:19;2.13;;;1.93;;
23206;SDS011;11773;52.570;13.052;2022-12-11T04:48:50;2.10;;;1.90;;
23206;SDS011;11773;52.570;13.052;2022-12-11T04:51:23;2.43;;;2.20;;
23206;SDS011;11773;52.570;13.052;2022-12-11T04:53:53;2.10;;;1.90;;
23206;SDS011;11773;52.570;13.052;2022-12-11T04:56:23;2.30;;;2.10;;
23206;SDS011;11773;52.570;13.052;2022-12-11T04:58:52;2.20;;;2.00;;
23206;SDS011;11773;52.570;13.052;2022-12-11T05:01:22;1.87;;;1.70;;
23206;SDS011;11773;52.570;13.052;2022-12-11T05:03:51;3.00;;;2.33;;
23206;SDS011;11773;52.570;13.052;2022-12-11T05:06:21;2.77;;;2.30;;
23206;SDS011;11773;52.570;13.052;2022-12-11T05:08:50;2.10;;;1.90;;
23206;SDS011;11773;52.570;13.052;2022-12-11T05:11:20;1.83;;;1.50;;
23206;SDS011;11773;52.570;13.052;2022-12-11T05:13:49;2.50;;;2.17;;
23206;SDS011;11773;52.570;13.052;2022-12-11T05:16:20;2.60;;;1.90;;
23206;SDS011;11773;52.570;13.052;2022-12-11T05:18:49;3.40;;;2.40;;
23206;SDS011;11773;52.570;13.052;2022-12-11T05:21:19;2.33;;;2.13;;
23206;SDS011;11773;52.570;13.052;2022-12-11T05:23:48;3.13;;;2.47;;
23206;SDS011;11773;52.570;13.052;2022-12-11T05:26:18;2.37;;;2.17;;
23206;SDS011;11773;52.570;13.052;2022-12-11T05:28:51;2.40;;;2.00;;
23206;SDS011;11773;52.570;13.052;2022-12-11T05:31:23;2.87;;;2.20;;
23206;SDS011;11773;52.570;13.052;2022-12-11T05:33:54;2.57;;;2.13;;
23206;SDS011;11773;52.570;13.052;2022-12-11T05:36:27;2.77;;;2.20;;
23206;SDS011;11773;52.570;13.052;2022-12-11T05:39:00;2.60;;;2.10;;
23206;SDS011;11773;52.570;13.052;2022-12-11T05:41:31;3.20;;;2.20;;
23206;SDS011;11773;52.570;13.052;2022-12-11T05:44:01;2.47;;;2.07;;
23206;SDS011;11773;52.570;13.052;2022-12-11T05:46:30;4.27;;;3.37;;
23206;SDS011;11773;52.570;13.052;2022-12-11T05:49:00;2.97;;;2.67;;
23206;SDS011;11773;52.570;13.052;2022-12-11T05:51:30;2.40;;;2.20;;
23206;SDS011;11773;52.570;13.052;2022-12-11T05:54:00;3.13;;;2.33;;
23206;SDS011;11773;52.570;13.052;2022-12-11T05:56:31;2.83;;;2.50;;
23206;SDS011;11773;52.570;13.052;2022-12-11T05:59:03;3.73;;;2.73;;
23206;SDS011;11773;52.570;13.052;2022-12-11T06:01:35;3.27;;;2.63;;
23206;SDS011;11773;52.570;13.052;2022-12-11T06:04:08;6.10;;;4.30;;
23206;SDS011;11773;52.570;13.052;2022-12-11T06:06:39;3.90;;;3.50;;
23206;SDS011;11773;52.570;13.052;2022-12-11T06:09:12;3.90;;;2.80;;
23206;SDS011;11773;52.570;13.052;2022-12-11T06:11:43;2.83;;;2.30;;
23206;SDS011;11773;52.570;13.052;2022-12-11T06:14:13;2.97;;;2.67;;
23206;SDS011;11773;52.570;13.052;2022-12-11T06:16:42;3.13;;;2.30;;
23206;SDS011;11773;52.570;13.052;2022-12-11T06:19:15;2.57;;;2.13;;
23206;SDS011;11773;52.570;13.052;2022-12-11T06:21:45;3.70;;;2.60;;
23206;SDS011;11773;52.570;13.052;2022-12-11T06:24:14;2.47;;;2.27;;
23206;SDS011;11773;52.570;13.052;2022-12-11T06:26:44;2.57;;;2.20;;
23206;SDS011;11773;52.570;13.052;2022-12-11T06:29:13;2.43;;;2.10;;
23206;SDS011;11773;52.570;13.052;2022-12-11T06:31:44;2.80;;;2.60;;
23206;SDS011;11773;52.570;13.052;2022-12-11T06:34:13;2.80;;;2.20;;
23206;SDS011;11773;52.570;13.052;2022-12-11T06:36:43;2.93;;;2.43;;
23206;SDS011;11773;52.570;13.052;2022-12-11T06:39:12;2.40;;;2.00;;
23206;SDS011;11773;52.570;13.052;2022-12-11T06:41:41;3.87;;;3.10;;
23206;SDS011;11773;52.570;13.052;2022-12-11T06:44:11;3.77;;;3.13;;
23206;SDS011;11773;52.570;13.052;2022-12-11T06:46:40;3.90;;;2.87;;
23206;SDS011;11773;52.570;13.052;2022-12-11T06:49:10;3.43;;;2.90;;
23206;SDS011;11773;52.570;13.052;2022-12-11T06:51:39;2.73;;;2.43;;
23206;SDS011;11773;52.570;13.052;2022-12-11T06:54:09;2.47;;;2.27;;
23206;SDS011;11773;52.570;13.052;2022-12-11T06:56:38;2.80;;;2.23;;
23206;SDS011;11773;52.570;13.052;2022-12-11T06:59:14;3.17;;;2.77;;
23206;SDS011;11773;52.570;13.052;2022-12-11T07:01:39;2.72;;;2.08;;
23206;SDS011;11773;52.570;13.052;2022-12-11T07:04:09;4.27;;;3.10;;
23206;SDS011;11773;52.570;13.052;2022-12-11T07:06:38;4.30;;;2.90;;
23206;SDS011;11773;52.570;13.052;2022-12-11T07:09:08;3.43;;;2.83;;
23206;SDS011;11773;52.570;13.052;2022-12-11T07:11:37;4.10;;;2.73;;
23206;SDS011;11773;52.570;13.052;2022-12-11T07:14:07;4.10;;;2.83;;
23206;SDS011;11773;52.570;13.052;2022-12-11T07:16:37;3.07;;;2.33;;
23206;SDS011;11773;52.570;13.052;2022-12-11T07:19:06;3.63;;;2.73;;
23206;SDS011;11773;52.570;13.052;2022-12-11T07:21:36;2.93;;;2.40;;
23206;SDS011;11773;52.570;13.052;2022-12-11T07:24:05;3.13;;;2.33;;
23206;SDS011;11773;52.570;13.052;2022-12-11T07:26:35;3.50;;;2.63;;
23206;SDS011;11773;52.570;13.052;2022-12-11T07:29:05;2.67;;;2.30;;
23206;SDS011;11773;52.570;13.052;2022-12-11T07:31:34;8.03;;;5.80;;
23206;SDS011;11773;52.570;13.052;2022-12-11T07:34:05;4.57;;;3.73;;
23206;SDS011;11773;52.570;13.052;2022-12-11T07:36:34;3.83;;;3.10;;
23206;SDS011;11773;52.570;13.052;2022-12-11T07:39:04;4.10;;;3.10;;
23206;SDS011;11773;52.570;13.052;2022-12-11T07:41:34;3.53;;;2.83;;
23206;SDS011;11773;52.570;13.052;2022-12-11T07:44:04;3.67;;;3.07;;
23206;SDS011;11773;52.570;13.052;2022-12-11T07:46:34;3.60;;;2.90;;
23206;SDS011;11773;52.570;13.052;2022-12-11T07:49:04;3.07;;;2.33;;
23206;SDS011;11773;52.570;13.052;2022-12-11T07:51:35;3.60;;;2.33;;
23206;SDS011;11773;52.570;13.052;2022-12-11T07:54:06;3.67;;;2.67;;
23206;SDS011;11773;52.570;13.052;2022-12-11T07:56:43;3.10;;;2.80;;
23206;SDS011;11773;52.570;13.052;2022-12-11T07:59:16;4.70;;;3.57;;
23206;SDS011;11773;52.570;13.052;2022-12-11T08:01:46;4.67;;;3.60;;
23206;SDS011;11773;52.570;13.052;2022-12-11T08:04:16;3.47;;;3.00;;
23206;SDS011;11773;52.570;13.052;2022-12-11T08:06:45;3.57;;;2.87;;
23206;SDS011;11773;52.570;13.052;2022-12-11T08:09:15;3.20;;;2.57;;
23206;SDS011;11773;52.570;13.052;2022-12-11T08:11:48;3.60;;;2.67;;
23206;SDS011;11773;52.570;13.052;2022-12-11T08:14:18;3.10;;;2.73;;
23206;SDS011;11773;52.570;13.052;2022-12-11T08:16:48;3.37;;;2.67;;
23206;SDS011;11773;52.570;13.052;2022-12-11T08:19:18;3.87;;;2.70;;
23206;SDS011;11773;52.570;13.052;2022-12-11T08:21:47;3.00;;;2.30;;
23206;SDS011;11773;52.570;13.052;2022-12-11T08:24:17;4.33;;;3.17;;
23206;SDS011;11773;52.570;13.052;2022-12-11T08:26:46;4.00;;;2.87;;
23206;SDS011;11773;52.570;13.052;2022-12-11T08:29:16;3.37;;;2.60;;
23206;SDS011;11773;52.570;13.052;2022-12-11T08:31:46;3.03;;;2.50;;
23206;SDS011;11773;52.570;13.052;2022-12-11T08:34:16;2.73;;;2.40;;
23206;SDS011;11773;52.570;13.052;2022-12-11T08:36:45;2.90;;;2.37;;
23206;SDS011;11773;52.570;13.052;2022-12-11T08:39:15;4.00;;;3.33;;
23206;SDS011;11773;52.570;13.052;2022-12-11T08:41:45;3.23;;;2.70;;
23206;SDS011;11773;52.570;13.052;2022-12-11T08:44:14;2.80;;;2.50;;
23206;SDS011;11773;52.570;13.052;2022-12-11T08:46:44;2.90;;;2.60;;
23206;SDS011;11773;52.570;13.052;2022-12-11T08:49:14;2.77;;;2.40;;
23206;SDS011;11773;52.570;13.052;2022-12-11T08:51:43;2.57;;;1.90;;
23206;SDS011;11773;52.570;13.052;2022-12-11T08:54:13;2.70;;;2.17;;
23206;SDS011;11773;52.570;13.052;2022-12-11T08:56:42;4.53;;;3.10;;
23206;SDS011;11773;52.570;13.052;2022-12-11T08:59:12;5.33;;;3.50;;
23206;SDS011;11773;52.570;13.052;2022-12-11T09:01:41;4.07;;;3.37;;
23206;SDS011;11773;52.570;13.052;2022-12-11T09:04:11;4.57;;;3.37;;
23206;SDS011;11773;52.570;13.052;2022-12-11T09:06:40;4.60;;;3.20;;
23206;SDS011;11773;52.570;13.052;2022-12-11T09:09:09;4.43;;;3.17;;
23206;SDS011;11773;52.570;13.052;2022-12-11T09:11:39;6.00;;;3.90;;
23206;SDS011;11773;52.570;13.052;2022-12-11T09:14:09;3.07;;;2.50;;
23206;SDS011;11773;52.570;13.052;2022-12-11T09:16:39;3.07;;;2.00;;
23206;SDS011;11773;52.570;13.052;2022-12-11T09:19:10;3.37;;;2.97;;
23206;SDS011;11773;52.570;13.052;2022-12-11T09:21:42;2.40;;;2.10;;
23206;SDS011;11773;52.570;13.052;2022-12-11T09:24:12;3.13;;;2.50;;
23206;SDS011;11773;52.570;13.052;2022-12-11T09:26:43;2.97;;;2.47;;
23206;SDS011;11773;52.570;13.052;2022-12-11T09:29:13;3.80;;;2.67;;
23206;SDS011;11773;52.570;13.052;2022-12-11T09:31:42;4.70;;;3.60;;
23206;SDS011;11773;52.570;13.052;2022-12-11T09:34:12;3.73;;;3.23;;
23206;SDS011;11773;52.570;13.052;2022-12-11T09:36:42;4.30;;;3.60;;
23206;SDS011;11773;52.570;13.052;2022-12-11T09:39:12;4.80;;;3.70;;
23206;SDS011;11773;52.570;13.052;2022-12-11T09:41:48;4.53;;;3.30;;
23206;SDS011;11773;52.570;13.052;2022-12-11T09:44:29;3.47;;;2.90;;
23206;SDS011;11773;52.570;13.052;2022-12-11T09:47:15;4.27;;;2.97;;
23206;SDS011;11773;52.570;13.052;2022-12-11T09:49:54;4.10;;;3.03;;
23206;SDS011;11773;52.570;13.052;2022-12-11T09:55:44;3.77;;;2.70;;
23206;SDS011;11773;52.570;13.052;2022-12-11T09:58:50;3.17;;;2.60;;
23206;SDS011;11773;52.570;13.052;2022-12-11T10:05:18;2.70;;;2.30;;
23206;SDS011;11773;52.570;13.052;2022-12-11T10:08:08;2.97;;;2.50;;
23206;SDS011;11773;52.570;13.052;2022-12-11T10:13:51;2.33;;;2.13;;
23206;SDS011;11773;52.570;13.052;2022-12-11T10:16:43;1.97;;;1.77;;
23206;SDS011;11773;52.570;13.052;2022-12-11T10:19:21;3.77;;;3.27;;
23206;SDS011;11773;52.570;13.052;2022-12-11T10:21:57;4.93;;;3.37;;
23206;SDS011;11773;52.570;13.052;2022-12-11T10:24:33;3.33;;;2.53;;
23206;SDS011;11773;52.570;13.052;2022-12-11T10:27:18;3.30;;;2.60;;
23206;SDS011;11773;52.570;13.052;2022-12-11T10:29:56;3.90;;;2.70;;
23206;SDS011;11773;52.570;13.052;2022-12-11T10:32:41;3.33;;;2.30;;
23206;SDS011;11773;52.570;13.052;2022-12-11T10:38:16;4.03;;;2.50;;
23206;SDS011;11773;52.570;13.052;2022-12-11T10:41:13;3.93;;;2.67;;
23206;SDS011;11773;52.570;13.052;2022-12-11T10:43:51;3.60;;;2.60;;
23206;SDS011;11773;52.570;13.052;2022-12-11T10:46:25;3.30;;;2.67;;
23206;SDS011;11773;52.570;13.052;2022-12-11T10:48:59;2.90;;;2.40;;
23206;SDS011;11773;52.570;13.052;2022-12-11T10:54:04;3.83;;;2.83;;
23206;SDS011;11773;52.570;13.052;2022-12-11T10:56:37;3.33;;;2.50;;
23206;SDS011;11773;52.570;13.052;2022-12-11T10:59:12;2.73;;;2.07;;
23206;SDS011;11773;52.570;13.052;2022-12-11T11:01:44;3.00;;;2.20;;
23206;SDS011;11773;52.570;13.052;2022-12-11T11:04:18;1.97;;;1.73;;
23206;SDS011;11773;52.570;13.052;2022-12-11T11:07:09;3.57;;;2.37;;
23206;SDS011;11773;52.570;13.052;2022-12-11T11:10:01;2.90;;;2.30;;
23206;SDS011;11773;52.570;13.052;2022-12-11T11:12:46;3.73;;;2.80;;
23206;SDS011;11773;52.570;13.052;2022-12-11T11:15:18;2.13;;;1.80;;
23206;SDS011;11773;52.570;13.052;2022-12-11T11:17:51;3.27;;;2.70;;
23206;SDS011;11773;52.570;13.052;2022-12-11T11:20:30;3.20;;;2.40;;
23206;SDS011;11773;52.570;13.052;2022-12-11T11:23:03;3.20;;;2.90;;
23206;SDS011;11773;52.570;13.052;2022-12-11T11:25:36;3.10;;;2.40;;
23206;SDS011;11773;52.570;13.052;2022-12-11T11:28:06;2.57;;;2.37;;
23206;SDS011;11773;52.570;13.052;2022-12-11T11:30:40;2.93;;;2.53;;
23206;SDS011;11773;52.570;13.052;2022-12-11T11:33:14;4.90;;;3.60;;
23206;SDS011;11773;52.570;13.052;2022-12-11T11:35:53;5.07;;;4.00;;
23206;SDS011;11773;52.570;13.052;2022-12-11T11:38:33;4.37;;;3.50;;
23206;SDS011;11773;52.570;13.052;2022-12-11T11:44:07;3.90;;;3.37;;
23206;SDS011;11773;52.570;13.052;2022-12-11T11:49:25;3.20;;;2.90;;
23206;SDS011;11773;52.570;13.052;2022-12-11T11:52:36;3.60;;;2.87;;
23206;SDS011;11773;52.570;13.052;2022-12-11T11:55:08;3.10;;;2.43;;
23206;SDS011;11773;52.570;13.052;2022-12-11T11:57:52;2.57;;;2.10;;
23206;SDS011;11773;52.570;13.052;2022-12-11T12:00:26;2.37;;;2.07;;
23206;SDS011;11773;52.570;13.052;2022-12-11T12:03:05;2.73;;;2.40;;
23206;SDS011;11773;52.570;13.052;2022-12-11T12:05:51;4.43;;;3.10;;
23206;SDS011;11773;52.570;13.052;2022-12-11T12:11:41;5.00;;;3.93;;
23206;SDS011;11773;52.570;13.052;2022-12-11T12:14:23;5.50;;;4.43;;
23206;SDS011;11773;52.570;13.052;2022-12-11T12:17:21;5.00;;;4.17;;
23206;SDS011;11773;52.570;13.052;2022-12-11T12:20:07;5.90;;;4.30;;
23206;SDS011;11773;52.570;13.052;2022-12-11T12:22:50;9.53;;;7.10;;
23206;SDS011;11773;52.570;13.052;2022-12-11T12:25:41;9.53;;;8.00;;
23206;SDS011;11773;52.570;13.052;2022-12-11T12:31:41;4.97;;;4.00;;
23206;SDS011;11773;52.570;13.052;2022-12-11T12:34:16;4.33;;;3.80;;
23206;SDS011;11773;52.570;13.052;2022-12-11T12:36:53;4.33;;;3.20;;
23206;SDS011;11773;52.570;13.052;2022-12-11T12:39:55;3.77;;;3.00;;
23206;SDS011;11773;52.570;13.052;2022-12-11T12:45:28;4.63;;;3.47;;
23206;SDS011;11773;52.570;13.052;2022-12-11T12:48:10;3.77;;;3.10;;
23206;SDS011;11773;52.570;13.052;2022-12-11T12:50:41;3.40;;;2.80;;
23206;SDS011;11773;52.570;13.052;2022-12-11T12:53:15;4.90;;;3.83;;
23206;SDS011;11773;52.570;13.052;2022-12-11T12:55:49;3.47;;;2.93;;
23206;SDS011;11773;52.570;13.052;2022-12-11T13:04:04;3.60;;;2.83;;
23206;SDS011;11773;52.570;13.052;2022-12-11T13:06:37;3.53;;;3.00;;
23206;SDS011;11773;52.570;13.052;2022-12-11T13:09:20;2.30;;;2.10;;
23206;SDS011;11773;52.570;13.052;2022-12-11T13:11:53;3.87;;;2.73;;
23206;SDS011;11773;52.570;13.052;2022-12-11T13:14:27;4.17;;;3.47;;
23206;SDS011;11773;52.570;13.052;2022-12-11T13:20:09;3.53;;;2.80;;
23206;SDS011;11773;52.570;13.052;2022-12-11T13:22:49;3.90;;;3.13;;
23206;SDS011;11773;52.570;13.052;2022-12-11T13:25:30;5.13;;;3.77;;
23206;SDS011;11773;52.570;13.052;2022-12-11T13:28:19;3.83;;;3.43;;
23206;SDS011;11773;52.570;13.052;2022-12-11T13:30:36;4.10;;;3.10;;
23206;SDS011;11773;52.570;13.052;2022-12-11T13:33:07;2.63;;;2.40;;
23206;SDS011;11773;52.570;13.052;2022-12-11T13:35:45;2.60;;;2.40;;
23206;SDS011;11773;52.570;13.052;2022-12-11T13:38:16;3.10;;;2.40;;
23206;SDS011;11773;52.570;13.052;2022-12-11T13:40:55;2.90;;;2.43;;
23206;SDS011;11773;52.570;13.052;2022-12-11T13:43:25;2.73;;;2.40;;
23206;SDS011;11773;52.570;13.052;2022-12-11T13:46:03;3.30;;;2.70;;
23206;SDS011;11773;52.570;13.052;2022-12-11T13:48:38;3.40;;;2.67;;
23206;SDS011;11773;52.570;13.052;2022-12-11T13:51:24;3.40;;;2.50;;
23206;SDS011;11773;52.570;13.052;2022-12-11T13:59:31;2.97;;;2.17;;
23206;SDS011;11773;52.570;13.052;2022-12-11T14:02:49;2.40;;;1.80;;
23206;SDS011;11773;52.570;13.052;2022-12-11T14:04:53;2.93;;;2.40;;
23206;SDS011;11773;52.570;13.052;2022-12-11T14:07:27;1.60;;;1.50;;
23206;SDS011;11773;52.570;13.052;2022-12-11T14:10:02;2.43;;;2.00;;
23206;SDS011;11773;52.570;13.052;2022-12-11T14:12:36;2.23;;;1.90;;
23206;SDS011;11773;52.570;13.052;2022-12-11T14:15:05;2.77;;;2.30;;
23206;SDS011;11773;52.570;13.052;2022-12-11T14:17:38;2.30;;;2.07;;
23206;SDS011;11773;52.570;13.052;2022-12-11T14:20:17;2.27;;;1.80;;
23206;SDS011;11773;52.570;13.052;2022-12-11T14:26:14;2.23;;;2.00;;
23206;SDS011;11773;52.570;13.052;2022-12-11T14:28:45;2.37;;;2.00;;
23206;SDS011;11773;52.570;13.052;2022-12-11T14:31:16;3.20;;;2.37;;
23206;SDS011;11773;52.570;13.052;2022-12-11T14:34:22;3.30;;;2.43;;
23206;SDS011;11773;52.570;13.052;2022-12-11T14:36:59;2.93;;;2.30;;
23206;SDS011;11773;52.570;13.052;2022-12-11T14:39:34;3.10;;;2.47;;
23206;SDS011;11773;52.570;13.052;2022-12-11T14:42:23;2.70;;;2.20;;
23206;SDS011;11773;52.570;13.052;2022-12-11T14:45:04;2.73;;;2.17;;
23206;SDS011;11773;52.570;13.052;2022-12-11T14:47:45;2.50;;;2.03;;
23206;SDS011;11773;52.570;13.052;2022-12-11T14:50:17;2.77;;;2.00;;
23206;SDS011;11773;52.570;13.052;2022-12-11T14:53:04;2.80;;;2.30;;
23206;SDS011;11773;52.570;13.052;2022-12-11T14:55:37;2.70;;;2.23;;
23206;SDS011;11773;52.570;13.052;2022-12-11T14:58:14;2.53;;;1.90;;
23206;SDS011;11773;52.570;13.052;2022-12-11T15:01:01;2.63;;;2.43;;
23206;SDS011;11773;52.570;13.052;2022-12-11T15:03:37;2.43;;;2.10;;
23206;SDS011;11773;52.570;13.052;2022-12-11T15:06:26;3.50;;;2.43;;
23206;SDS011;11773;52.570;13.052;2022-12-11T15:12:07;3.07;;;2.17;;
23206;SDS011;11773;52.570;13.052;2022-12-11T15:14:47;2.60;;;1.97;;
23206;SDS011;11773;52.570;13.052;2022-12-11T15:17:20;3.20;;;2.27;;
23206;SDS011;11773;52.570;13.052;2022-12-11T15:19:53;4.60;;;3.30;;
23206;SDS011;11773;52.570;13.052;2022-12-11T15:22:36;3.13;;;2.63;;
23206;SDS011;11773;52.570;13.052;2022-12-11T15:25:16;4.00;;;2.57;;
23206;SDS011;11773;52.570;13.052;2022-12-11T15:27:49;2.93;;;2.23;;
23206;SDS011;11773;52.570;13.052;2022-12-11T15:30:26;2.23;;;1.90;;
23206;SDS011;11773;52.570;13.052;2022-12-11T15:33:03;2.57;;;2.10;;
23206;SDS011;11773;52.570;13.052;2022-12-11T15:35:51;2.63;;;2.20;;
23206;SDS011;11773;52.570;13.052;2022-12-11T15:41:13;2.70;;;1.80;;
23206;SDS011;11773;52.570;13.052;2022-12-11T15:43:47;2.73;;;1.80;;
23206;SDS011;11773;52.570;13.052;2022-12-11T15:46:19;3.03;;;2.10;;
23206;SDS011;11773;52.570;13.052;2022-12-11T15:48:48;2.63;;;2.10;;
23206;SDS011;11773;52.570;13.052;2022-12-11T15:51:18;2.97;;;2.30;;
23206;SDS011;11773;52.570;13.052;2022-12-11T15:53:49;2.90;;;2.37;;
23206;SDS011;11773;52.570;13.052;2022-12-11T15:56:18;2.67;;;2.20;;
23206;SDS011;11773;52.570;13.052;2022-12-11T15:58:48;2.73;;;2.07;;
23206;SDS011;11773;52.570;13.052;2022-12-11T16:01:17;3.07;;;2.17;;
23206;SDS011;11773;52.570;13.052;2022-12-11T16:03:47;2.03;;;1.67;;
23206;SDS011;11773;52.570;13.052;2022-12-11T16:06:16;2.70;;;2.17;;
23206;SDS011;11773;52.570;13.052;2022-12-11T16:08:46;2.70;;;2.30;;
23206;SDS011;11773;52.570;13.052;2022-12-11T16:11:16;3.77;;;3.10;;
23206;SDS011;11773;52.570;13.052;2022-12-11T16:13:45;2.90;;;2.30;;